• Join FlightAware (Why Join?)
  • Login
  • US Flag 
03:04AM EST


 

Airport Tracker/Info


-or-


 

Live Flight TrackerFlight Track Log ✈ CSN8315 ✈ 05-May-2014 ✈ ZGGG / CAN - ZSYW / YIW

Flight Track Log - Related Links

Times and Time Zones

All times are in EDT time to prevent confusion due to time zone crossing. See the CSN8315 flight status page for this flight to view local times or setup timezone preferences in your user account.

Time Position Orientation Groundspeed Altitude Reporting Facility
EDT Latitude Longitude Course Direction KTS MPH feet Rate Location/Type
09:46PM 24.0255 114.6348 41° Northeast  Level Estimated
09:47PM 24.1367 114.7408 41° Northeast  Level Estimated
09:48PM 24.2478 114.8470 41° Northeast  Level Estimated
09:49PM 24.3589 114.9534 41° Northeast  Level Estimated
09:50PM 24.4699 115.0599 41° Northeast  Level Estimated
09:51PM 24.5808 115.1667 41° Northeast  Level Estimated
09:52PM 24.6916 115.2737 41° Northeast  Level Estimated
09:53PM 24.8024 115.3808 41° Northeast  Level Estimated
09:54PM 24.9131 115.4881 41° Northeast  Level Estimated
09:55PM 25.0237 115.5956 41° Northeast  Level Estimated
09:56PM 25.1342 115.7034 41° Northeast  Level Estimated
09:57PM 25.2446 115.8113 41° Northeast  Level Estimated
09:58PM 25.3550 115.9194 42° Northeast  Level Estimated
09:59PM 25.4653 116.0277 42° Northeast  Level Estimated
10:00PM 25.5755 116.1362 42° Northeast  Level Estimated
10:01PM 25.6856 116.2449 42° Northeast  Level Estimated
10:02PM 25.7957 116.3538 42° Northeast  Level Estimated
10:03PM 25.9057 116.4629 42° Northeast  Level Estimated
10:04PM 26.0156 116.5723 42° Northeast  Level Estimated
10:05PM 26.1254 116.6818 42° Northeast  Level Estimated
10:06PM 26.2351 116.7915 42° Northeast  Level Estimated
10:07PM 26.3447 116.9014 42° Northeast  Level Estimated
10:08PM 26.4543 117.0116 42° Northeast  Level Estimated
10:09PM 26.5637 117.1219 42° Northeast  Level Estimated
10:10PM 26.6731 117.2325 42° Northeast  Level Estimated
10:11PM 26.7824 117.3432 42° Northeast  Level Estimated
10:12PM 26.8916 117.4542 42° Northeast  Level Estimated
10:13PM 27.0008 117.5654 42° Northeast  Level Estimated
10:14PM 27.1098 117.6769 42° Northeast  Level Estimated
10:15PM 27.2188 117.7885 42° Northeast  Level Estimated
10:16PM 27.3276 117.9004 42° Northeast  Level Estimated
10:17PM 27.4364 118.0124 42° Northeast  Level Estimated
10:18PM 27.5451 118.1247 42° Northeast  Level Estimated
10:19PM 27.6537 118.2372 43° Northeast  Level Estimated
10:20PM 27.7622 118.3500 43° Northeast  Level Estimated
10:21PM 27.8706 118.4629 43° Northeast  Level Estimated
10:22PM 27.9789 118.5761 43° Northeast  Level Estimated
10:23PM 28.0871 118.6895 43° Northeast  Level Estimated
10:24PM 28.1953 118.8032 43° Northeast  Level Estimated
10:25PM 28.3033 118.9171 43° Northeast  Level Estimated
10:26PM 28.4112 119.0312 43° Northeast  Level Estimated
10:27PM 28.5191 119.1455 43° Northeast  Level Estimated
10:28PM 28.6268 119.2601 43° Northeast  Level Estimated
10:29PM 28.7345 119.3749 43° Northeast  Level Estimated
10:30PM 28.8421 119.4900 43° Northeast  Level Estimated
10:31PM 28.9495 119.6052 43° Northeast  Level Estimated
10:32PM 29.0569 119.7208 43° Northeast  Level Estimated
10:33PM 29.1641 119.8365 43° Northeast  Level Estimated
10:34PM 29.2713 119.9525 43° Northeast  Level Estimated
10:35PM 29.3447 120.0322 43° Northeast  Level Estimated
10:36PM 29.3447 120.0322 North  Level Estimated
10:37PM 29.3447 120.0322 North  Level Estimated
10:38PM 29.3447 120.0322 North  Level Estimated
10:39PM 29.3447 120.0322 North  Level Estimated
10:40PM 29.3447 120.0322 North  Level Estimated
10:41PM 29.3447 120.0322 North  Level Estimated
10:42PM 29.3447 120.0322 North  Level Estimated
10:43PM 29.3447 120.0322 North  Level Estimated
10:44PM 29.3447 120.0322 North  Level Estimated
10:45PM 29.3447 120.0322 North  Level Estimated
10:46PM 29.3447 120.0322 North  Level Estimated
10:47PM 29.3447 120.0322 North  Level Estimated
10:48PM 29.3447 120.0322 North  Level Estimated
10:49PM 29.3447 120.0322 North  Level Estimated
10:50PM 29.3447 120.0322 North  Level Estimated
10:51PM 29.3447 120.0322 North  Level Estimated
10:52PM 29.3447 120.0322 North  Level Estimated
10:53PM 29.3447 120.0322 North  Level Estimated
10:54PM 29.3447 120.0322 North  Level Estimated
10:55PM 29.3447 120.0322 North  Level Estimated
10:56PM 29.3447 120.0322 North  Level Estimated